Brighton, MI (48114)

6:47 PM EST on February 06, 2016 (GMT -0500)
Fonda Lake | | Change Station
CLOSE
Current Station
Personal Weather Station
Location: Brighton, MI
Elevation: 897 ft
Nearby Weather Stations

Elev 897 ft 42.51 °N, 83.75 °W | Updated 30 seconds ago

Partly Cloudy
Partly Cloudy
32.7 °F
Feels Like 33 °F
N
2.5
Wind Variable Wind from West
Gusts 5.0 mph

Today
High -- | Low -- °F
--% Chance of Precip.
Yesterday
High -- | Low -- °F
Precip. -- in
Pressure 30.15 in
Visibility 10.0 miles
Clouds Clear
Windchill 33 °F
Dew Point 18 °F
Humidity 54%
Rainfall 0.00 in
Snow Depth Not available.
7:43 AM 5:54 PM
Waning Crescent, 3% visible
METAR KOZW 062335Z AUTO 23005KT 10SM CLR 00/M07 A3015 RMK AO2 T00021066
Pressure 30.15 in
Visibility 10.0 miles
Clouds Clear
Windchill 33 °F
Dew Point 18 °F
Humidity 54%
Rainfall 0.00 in
Snow Depth Not available.
7:43 AM 5:54 PM
Waning Crescent, 3% visible
METAR KOZW 062335Z AUTO 23005KT 10SM CLR 00/M07 A3015 RMK AO2 T00021066

10-Day Weather Forecast

Almanac

Astronomy

Feb. 06, 2016 Rise Set
Actual Time
Civil Twilight
Nautical Twilight
Astronomical Twilight
Moon
Length of Visible Light
Length of Day
Tomorrow will be .
, % of the Moon is Illuminated

Today's Extremes

State Highs State Lows

Community

WunderPhotos

Upload Photos

1,891,098 photos uploaded!

WunderBlog® & News

Nearby

Air Quality

  Air Quality AQ Index Pollutant
Not available.

Snow Depth

Station Depth Elevation

Earthquake Activity

City Distance Mag. Time & Date
Minimum magnitude displayed is 2.5.

Coastal Water Temperatures

Place Temperature

Stations

Nearby Weather Stations

Station Location Temp. Windchill Dew Point Humidity Wind Precip. Elev Updated Type
                   

Watches & Warnings

There are currently no watches in effect.